エカテリンブルク の空港の天気 - METARとTAF

コルツォヴォ空港 ( USSS / SVX ) - ロシア エカテリンブルク
飛行場実況気象(Metar)
観測時間06/19 01:30 YEKT (06/18 20:30 UTC)
風向・風速西北西 3m/s
視程10km以上
天気現象
少しの雲 雲底高度 1010m
気温13℃
湿度94%
気圧1003hPa
METARUSSS 182030Z 29003MPS 9999 FEW033 13/12 Q1003 R26R/290038 R26L/290050 NOSIG RMK QFE732/0976
過去の天気等 Google飛行場航空写真 Wunderground天気予報

過去48時間のMETAR

飛行場予報(TAF)
発表時間: 6/19 00:55 YEKT (6/18 19:55 UTC)
予報対象時間: 19日2時 YEKT ~ 20日2時 YEKT
風向・風速西北西 6m/s
視程5000m
天気現象もや
全天の4割程度の積乱雲 雲底高度 610m
19日8時 YEKT ~ 19日10時 YEKT に徐々に
視程10km以上
天気現象運行に影響にある天気現象が終了
19日11時 YEKT ~ 19日22時 YEKT に一時的に
風向・風速西北西 17m/s
天気現象弱い雷雨
全天の8割程度の積乱雲 雲底高度 610m
TAF USSS 181955Z 1821/1921 29006MPS 5000 BR SCT020CB
BECMG 1903/1905 9999 NSW
TEMPO 1906/1917 30017MPS -TSRA BKN020CB